sensor_id;sensor_type;location;lat;lon;timestamp;pressure;altitude;pressure_sealevel;temperature;humidity
55550;BME280;41397;49.972;18.944;2023-04-30T00:00:39;101800.46;;;16.43;68.79
55550;BME280;41397;49.972;18.944;2023-04-30T00:03:46;101806.11;;;16.42;68.90
55550;BME280;41397;49.972;18.944;2023-04-30T00:06:47;101800.74;;;16.40;68.88
55550;BME280;41397;49.972;18.944;2023-04-30T00:09:48;101810.59;;;16.33;69.20
55550;BME280;41397;49.972;18.944;2023-04-30T00:12:51;101809.25;;;16.28;69.28
55550;BME280;41397;49.972;18.944;2023-04-30T00:15:53;101799.97;;;16.29;69.07
55550;BME280;41397;49.972;18.944;2023-04-30T00:18:54;101807.36;;;16.28;69.10
55550;BME280;41397;49.972;18.944;2023-04-30T00:21:55;101804.38;;;16.10;69.60
55550;BME280;41397;49.972;18.944;2023-04-30T00:24:57;101802.36;;;16.12;69.28
55550;BME280;41397;49.972;18.944;2023-04-30T00:27:58;101813.84;;;16.17;69.47
55550;BME280;41397;49.972;18.944;2023-04-30T00:30:59;101810.90;;;16.09;69.70
55550;BME280;41397;49.972;18.944;2023-04-30T00:34:01;101808.27;;;16.08;70.02
55550;BME280;41397;49.972;18.944;2023-04-30T00:37:03;101816.30;;;15.90;70.31
55550;BME280;41397;49.972;18.944;2023-04-30T00:40:06;101814.40;;;15.90;70.54
55550;BME280;41397;49.972;18.944;2023-04-30T00:43:08;101808.49;;;15.95;70.25
55550;BME280;41397;49.972;18.944;2023-04-30T00:46:09;101812.81;;;15.88;70.18
55550;BME280;41397;49.972;18.944;2023-04-30T00:49:12;101813.69;;;15.88;70.12
55550;BME280;41397;49.972;18.944;2023-04-30T00:52:13;101807.70;;;15.83;69.85
55550;BME280;41397;49.972;18.944;2023-04-30T00:55:16;101811.71;;;15.79;69.89
55550;BME280;41397;49.972;18.944;2023-04-30T00:58:19;101815.22;;;15.81;69.77
55550;BME280;41397;49.972;18.944;2023-04-30T01:01:20;101807.70;;;15.83;69.74
55550;BME280;41397;49.972;18.944;2023-04-30T01:04:22;101811.91;;;15.87;69.76
55550;BME280;41397;49.972;18.944;2023-04-30T01:07:24;101822.09;;;15.87;69.67
55550;BME280;41397;49.972;18.944;2023-04-30T01:10:39;101810.45;;;15.83;69.56
55550;BME280;41397;49.972;18.944;2023-04-30T01:17:07;101833.27;;;15.85;69.39
55550;BME280;41397;49.972;18.944;2023-04-30T01:20:10;101816.95;;;15.82;69.61
55550;BME280;41397;49.972;18.944;2023-04-30T01:26:39;101838.52;;;15.88;69.96
55550;BME280;41397;49.972;18.944;2023-04-30T01:29:40;101839.49;;;15.87;69.74
55550;BME280;41397;49.972;18.944;2023-04-30T01:32:43;101835.76;;;15.88;69.74
55550;BME280;41397;49.972;18.944;2023-04-30T01:42:20;101839.45;;;15.78;69.82
55550;BME280;41397;49.972;18.944;2023-04-30T01:48:53;101840.59;;;15.75;69.90
55550;BME280;41397;49.972;18.944;2023-04-30T01:52:12;101848.50;;;15.68;70.07
55550;BME280;41397;49.972;18.944;2023-04-30T01:55:36;101848.50;;;15.68;70.28
55550;BME280;41397;49.972;18.944;2023-04-30T01:58:28;101844.16;;;15.54;70.95
55550;BME280;41397;49.972;18.944;2023-04-30T02:01:32;101850.30;;;15.58;70.89
55550;BME280;41397;49.972;18.944;2023-04-30T02:04:34;101852.52;;;15.64;70.75
55550;BME280;41397;49.972;18.944;2023-04-30T02:07:41;101859.65;;;15.67;70.20
55550;BME280;41397;49.972;18.944;2023-04-30T02:10:46;101860.52;;;15.67;70.32
55550;BME280;41397;49.972;18.944;2023-04-30T02:13:47;101859.42;;;15.70;70.46
55550;BME280;41397;49.972;18.944;2023-04-30T02:16:49;101865.68;;;15.72;69.93
55550;BME280;41397;49.972;18.944;2023-04-30T02:19:51;101870.92;;;15.75;69.74
55550;BME280;41397;49.972;18.944;2023-04-30T02:22:52;101864.80;;;15.71;69.73
55550;BME280;41397;49.972;18.944;2023-04-30T02:25:53;101864.07;;;15.69;69.57
55550;BME280;41397;49.972;18.944;2023-04-30T02:28:55;101867.05;;;15.66;69.60
55550;BME280;41397;49.972;18.944;2023-04-30T02:31:58;101876.20;;;15.67;69.94
55550;BME280;41397;49.972;18.944;2023-04-30T02:34:59;101874.07;;;15.70;69.79
55550;BME280;41397;49.972;18.944;2023-04-30T02:38:01;101867.42;;;15.73;69.73
55550;BME280;41397;49.972;18.944;2023-04-30T02:41:02;101875.71;;;15.62;69.73
55550;BME280;41397;49.972;18.944;2023-04-30T02:44:14;101878.36;;;15.63;69.95
55550;BME280;41397;49.972;18.944;2023-04-30T02:47:18;101869.81;;;15.66;69.88
55550;BME280;41397;49.972;18.944;2023-04-30T02:50:20;101870.96;;;15.64;70.10
55550;BME280;41397;49.972;18.944;2023-04-30T02:53:21;101874.58;;;15.64;70.32
55550;BME280;41397;49.972;18.944;2023-04-30T02:56:23;101869.81;;;15.66;70.79
55550;BME280;41397;49.972;18.944;2023-04-30T02:59:24;101882.10;;;15.62;70.45
55550;BME280;41397;49.972;18.944;2023-04-30T03:02:26;101885.12;;;15.59;70.10
55550;BME280;41397;49.972;18.944;2023-04-30T03:05:29;101894.05;;;15.51;70.04
55550;BME280;41397;49.972;18.944;2023-04-30T03:08:30;101882.95;;;15.42;70.22
55550;BME280;41397;49.972;18.944;2023-04-30T03:11:32;101891.59;;;15.37;69.69
55550;BME280;41397;49.972;18.944;2023-04-30T03:14:37;101890.64;;;15.16;69.84
55550;BME280;41397;49.972;18.944;2023-04-30T03:17:38;101903.03;;;15.21;69.57
55550;BME280;41397;49.972;18.944;2023-04-30T03:20:40;101917.32;;;15.15;69.20
55550;BME280;41397;49.972;18.944;2023-04-30T03:23:42;101912.45;;;15.07;69.12
55550;BME280;41397;49.972;18.944;2023-04-30T03:26:44;101924.74;;;15.03;69.08
55550;BME280;41397;49.972;18.944;2023-04-30T03:29:45;101928.99;;;14.96;68.93
55550;BME280;41397;49.972;18.944;2023-04-30T03:32:47;101926.49;;;14.93;68.37
55550;BME280;41397;49.972;18.944;2023-04-30T03:35:48;101928.75;;;14.88;68.34
55550;BME280;41397;49.972;18.944;2023-04-30T03:38:51;101938.40;;;14.71;67.46
55550;BME280;41397;49.972;18.944;2023-04-30T03:41:53;101953.14;;;14.70;66.94
55550;BME280;41397;49.972;18.944;2023-04-30T03:44:54;101954.16;;;14.69;66.53
55550;BME280;41397;49.972;18.944;2023-04-30T03:47:55;101953.64;;;14.64;65.71
55550;BME280;41397;49.972;18.944;2023-04-30T03:50:57;101968.77;;;14.58;64.87
55550;BME280;41397;49.972;18.944;2023-04-30T03:53:58;101969.91;;;14.56;64.65
55550;BME280;41397;49.972;18.944;2023-04-30T03:57:00;101973.37;;;14.47;64.22
55550;BME280;41397;49.972;18.944;2023-04-30T04:00:06;101981.73;;;14.45;63.96
55550;BME280;41397;49.972;18.944;2023-04-30T04:03:07;101985.09;;;14.37;63.85
55550;BME280;41397;49.972;18.944;2023-04-30T04:06:09;101987.83;;;14.37;63.79
55550;BME280;41397;49.972;18.944;2023-04-30T04:09:10;102004.48;;;14.36;63.90
55550;BME280;41397;49.972;18.944;2023-04-30T04:12:11;101999.09;;;14.34;63.78
55550;BME280;41397;49.972;18.944;2023-04-30T04:15:13;102013.09;;;14.31;63.73
55550;BME280;41397;49.972;18.944;2023-04-30T04:18:15;102015.98;;;14.30;64.21
55550;BME280;41397;49.972;18.944;2023-04-30T04:21:17;102016.72;;;14.32;64.38
55550;BME280;41397;49.972;18.944;2023-04-30T04:24:19;102026.86;;;14.31;64.87
55550;BME280;41397;49.972;18.944;2023-04-30T04:27:20;102027.86;;;14.30;65.02
55550;BME280;41397;49.972;18.944;2023-04-30T04:30:21;102030.47;;;14.32;65.29
55550;BME280;41397;49.972;18.944;2023-04-30T04:33:23;102037.76;;;14.33;65.32
55550;BME280;41397;49.972;18.944;2023-04-30T04:36:27;102044.62;;;14.27;65.53
55550;BME280;41397;49.972;18.944;2023-04-30T04:39:30;102046.12;;;14.31;65.83
55550;BME280;41397;49.972;18.944;2023-04-30T04:42:31;102052.73;;;14.29;65.96
55550;BME280;41397;49.972;18.944;2023-04-30T04:45:33;102047.99;;;14.31;65.99
55550;BME280;41397;49.972;18.944;2023-04-30T04:48:38;102053.61;;;14.29;65.65
55550;BME280;41397;49.972;18.944;2023-04-30T04:51:39;102062.34;;;14.23;65.27
55550;BME280;41397;49.972;18.944;2023-04-30T04:54:41;102067.84;;;14.23;65.24
55550;BME280;41397;49.972;18.944;2023-04-30T04:57:42;102073.35;;;14.23;65.45
55550;BME280;41397;49.972;18.944;2023-04-30T05:00:44;102076.97;;;14.24;65.40
55550;BME280;41397;49.972;18.944;2023-04-30T05:03:47;102080.49;;;14.26;65.68
55550;BME280;41397;49.972;18.944;2023-04-30T05:06:50;102085.75;;;14.29;65.17
55550;BME280;41397;49.972;18.944;2023-04-30T05:09:51;102094.24;;;14.26;65.35
55550;BME280;41397;49.972;18.944;2023-04-30T05:12:52;102092.84;;;14.20;65.54
55550;BME280;41397;49.972;18.944;2023-04-30T05:15:54;102117.51;;;14.21;65.67
55550;BME280;41397;49.972;18.944;2023-04-30T05:18:56;102119.88;;;14.26;65.62
55550;BME280;41397;49.972;18.944;2023-04-30T05:21:57;102112.50;;;14.27;65.84
55550;BME280;41397;49.972;18.944;2023-04-30T05:25:01;102119.45;;;14.32;66.46
55550;BME280;41397;49.972;18.944;2023-04-30T05:28:02;102127.45;;;14.35;66.58
55550;BME280;41397;49.972;18.944;2023-04-30T05:31:04;102134.95;;;14.33;66.48
55550;BME280;41397;49.972;18.944;2023-04-30T05:34:06;102140.21;;;14.36;65.99
55550;BME280;41397;49.972;18.944;2023-04-30T05:37:07;102146.58;;;14.37;65.93
55550;BME280;41397;49.972;18.944;2023-04-30T05:40:09;102160.25;;;14.38;66.63
55550;BME280;41397;49.972;18.944;2023-04-30T05:43:11;102163.10;;;14.37;66.31
55550;BME280;41397;49.972;18.944;2023-04-30T05:46:13;102163.10;;;14.37;65.97
55550;BME280;41397;49.972;18.944;2023-04-30T05:49:14;102175.75;;;14.39;66.42
55550;BME280;41397;49.972;18.944;2023-04-30T05:52:16;102179.28;;;14.41;66.68
55550;BME280;41397;49.972;18.944;2023-04-30T05:55:17;102178.16;;;14.44;67.00
55550;BME280;41397;49.972;18.944;2023-04-30T05:58:18;102186.42;;;14.44;66.99
55550;BME280;41397;49.972;18.944;2023-04-30T06:01:20;102192.70;;;14.46;66.81
55550;BME280;41397;49.972;18.944;2023-04-30T06:04:23;102193.57;;;14.47;67.14
55550;BME280;41397;49.972;18.944;2023-04-30T06:07:25;102195.31;;;14.48;67.06
55550;BME280;41397;49.972;18.944;2023-04-30T06:10:26;102196.86;;;14.52;66.98
55550;BME280;41397;49.972;18.944;2023-04-30T06:13:28;102199.62;;;14.52;67.46
55550;BME280;41397;49.972;18.944;2023-04-30T06:16:29;102204.03;;;14.54;67.57
55550;BME280;41397;49.972;18.944;2023-04-30T06:19:31;102193.76;;;14.56;67.19
55550;BME280;41397;49.972;18.944;2023-04-30T06:22:32;102207.18;;;14.61;66.27
55550;BME280;41397;49.972;18.944;2023-04-30T06:25:34;102202.45;;;14.63;66.29
55550;BME280;41397;49.972;18.944;2023-04-30T06:28:50;102203.09;;;14.67;66.04
55550;BME280;41397;49.972;18.944;2023-04-30T06:32:05;102202.74;;;14.71;65.70
55550;BME280;41397;49.972;18.944;2023-04-30T06:35:08;102202.36;;;14.76;65.92
55550;BME280;41397;49.972;18.944;2023-04-30T06:38:14;102213.04;;;14.80;66.61
55550;BME280;41397;49.972;18.944;2023-04-30T06:41:17;102208.68;;;14.89;66.68
55550;BME280;41397;49.972;18.944;2023-04-30T06:44:19;102216.36;;;14.97;66.19
55550;BME280;41397;49.972;18.944;2023-04-30T06:47:20;102216.63;;;15.05;65.02
55550;BME280;41397;49.972;18.944;2023-04-30T06:50:22;102215.80;;;15.16;65.56
55550;BME280;41397;49.972;18.944;2023-04-30T06:53:23;102226.25;;;15.35;65.32
55550;BME280;41397;49.972;18.944;2023-04-30T06:56:25;102218.89;;;15.58;65.05
55550;BME280;41397;49.972;18.944;2023-04-30T06:59:28;102224.34;;;15.82;64.44
55550;BME280;41397;49.972;18.944;2023-04-30T07:02:31;102223.34;;;16.05;63.71
55550;BME280;41397;49.972;18.944;2023-04-30T07:05:32;102212.42;;;16.26;62.26
55550;BME280;41397;49.972;18.944;2023-04-30T07:08:34;102215.88;;;16.39;61.58
55550;BME280;41397;49.972;18.944;2023-04-30T07:11:35;102215.47;;;16.55;61.79
55550;BME280;41397;49.972;18.944;2023-04-30T07:14:38;102224.20;;;16.72;60.41
55550;BME280;41397;49.972;18.944;2023-04-30T07:17:39;102223.22;;;16.84;59.20
55550;BME280;41397;49.972;18.944;2023-04-30T07:20:46;102216.98;;;17.03;58.99
55550;BME280;41397;49.972;18.944;2023-04-30T07:24:16;102219.23;;;17.30;57.61
55550;BME280;41397;49.972;18.944;2023-04-30T07:27:26;102223.18;;;17.37;56.01
55550;BME280;41397;49.972;18.944;2023-04-30T07:30:28;102216.81;;;17.67;55.80
55550;BME280;41397;49.972;18.944;2023-04-30T07:33:29;102216.31;;;18.04;55.18
55550;BME280;41397;49.972;18.944;2023-04-30T07:36:31;102213.65;;;18.33;54.02
55550;BME280;41397;49.972;18.944;2023-04-30T07:39:33;102214.27;;;18.56;52.19
55550;BME280;41397;49.972;18.944;2023-04-30T07:42:34;102231.69;;;18.78;52.51
55550;BME280;41397;49.972;18.944;2023-04-30T07:45:36;102219.01;;;18.95;50.09
55550;BME280;41397;49.972;18.944;2023-04-30T07:48:38;102230.98;;;19.05;50.79
55550;BME280;41397;49.972;18.944;2023-04-30T07:51:40;102226.16;;;19.17;47.39
55550;BME280;41397;49.972;18.944;2023-04-30T07:54:42;102223.25;;;19.18;46.38
55550;BME280;41397;49.972;18.944;2023-04-30T07:57:44;102234.91;;;19.22;47.09
55550;BME280;41397;49.972;18.944;2023-04-30T08:00:45;102233.88;;;19.23;46.87
55550;BME280;41397;49.972;18.944;2023-04-30T08:03:47;102231.99;;;19.14;46.45
55550;BME280;41397;49.972;18.944;2023-04-30T08:06:50;102236.38;;;18.97;44.74
55550;BME280;41397;49.972;18.944;2023-04-30T08:09:51;102232.86;;;18.95;43.84
55550;BME280;41397;49.972;18.944;2023-04-30T08:12:53;102241.32;;;18.93;44.39
55550;BME280;41397;49.972;18.944;2023-04-30T08:15:54;102236.67;;;18.94;45.04
55550;BME280;41397;49.972;18.944;2023-04-30T08:18:56;102235.04;;;18.81;44.44
55550;BME280;41397;49.972;18.944;2023-04-30T08:21:58;102231.99;;;18.94;45.71
55550;BME280;41397;49.972;18.944;2023-04-30T08:25:01;102238.43;;;19.04;45.82
55550;BME280;41397;49.972;18.944;2023-04-30T08:28:05;102230.39;;;19.11;44.85
55550;BME280;41397;49.972;18.944;2023-04-30T08:31:06;102235.78;;;19.03;43.75
55550;BME280;41397;49.972;18.944;2023-04-30T08:34:09;102231.98;;;19.04;44.30
55550;BME280;41397;49.972;18.944;2023-04-30T08:37:10;102241.91;;;19.06;44.14
55550;BME280;41397;49.972;18.944;2023-04-30T08:40:12;102235.51;;;19.16;43.81
55550;BME280;41397;49.972;18.944;2023-04-30T08:43:17;102237.23;;;19.17;44.12
55550;BME280;41397;49.972;18.944;2023-04-30T08:46:20;102238.25;;;19.25;43.40
55550;BME280;41397;49.972;18.944;2023-04-30T08:49:29;102247.04;;;19.21;43.09
55550;BME280;41397;49.972;18.944;2023-04-30T08:52:34;102235.91;;;19.30;44.36
55550;BME280;41397;49.972;18.944;2023-04-30T08:55:39;102238.85;;;19.29;43.06
55550;BME280;41397;49.972;18.944;2023-04-30T08:58:41;102237.09;;;19.38;43.13
55550;BME280;41397;49.972;18.944;2023-04-30T09:01:49;102241.61;;;19.39;42.66
55550;BME280;41397;49.972;18.944;2023-04-30T09:04:55;102246.41;;;19.46;42.54
55550;BME280;41397;49.972;18.944;2023-04-30T09:07:56;102241.90;;;19.45;43.28
55550;BME280;41397;49.972;18.944;2023-04-30T09:11:03;102250.50;;;19.52;42.58
55550;BME280;41397;49.972;18.944;2023-04-30T09:14:21;102251.97;;;19.56;42.83
55550;BME280;41397;49.972;18.944;2023-04-30T09:17:43;102246.24;;;19.58;41.80
55550;BME280;41397;49.972;18.944;2023-04-30T09:24:22;102251.82;;;19.67;39.64
55550;BME280;41397;49.972;18.944;2023-04-30T09:27:31;102243.76;;;19.74;39.38
55550;BME280;41397;49.972;18.944;2023-04-30T09:30:33;102241.85;;;19.74;40.19
55550;BME280;41397;49.972;18.944;2023-04-30T09:33:44;102244.80;;;19.73;38.23
55550;BME280;41397;49.972;18.944;2023-04-30T09:36:54;102247.95;;;19.88;39.27
55550;BME280;41397;49.972;18.944;2023-04-30T09:39:56;102249.55;;;19.90;39.00
55550;BME280;41397;49.972;18.944;2023-04-30T09:42:58;102242.09;;;19.91;39.25
55550;BME280;41397;49.972;18.944;2023-04-30T09:46:02;102247.32;;;20.04;39.76
55550;BME280;41397;49.972;18.944;2023-04-30T09:49:10;102242.31;;;20.07;38.41
55550;BME280;41397;49.972;18.944;2023-04-30T09:52:11;102241.67;;;20.23;38.42
55550;BME280;41397;49.972;18.944;2023-04-30T09:55:13;102238.38;;;20.37;38.03
55550;BME280;41397;49.972;18.944;2023-04-30T09:58:16;102225.30;;;20.48;37.35
55550;BME280;41397;49.972;18.944;2023-04-30T10:01:19;102225.85;;;20.61;37.11
55550;BME280;41397;49.972;18.944;2023-04-30T10:04:51;102220.05;;;20.54;36.72
55550;BME280;41397;49.972;18.944;2023-04-30T10:11:20;102225.60;;;20.54;37.66
55550;BME280;41397;49.972;18.944;2023-04-30T10:14:24;102216.95;;;20.75;37.93
55550;BME280;41397;49.972;18.944;2023-04-30T10:17:35;102211.41;;;20.93;36.54
55550;BME280;41397;49.972;18.944;2023-04-30T10:20:41;102213.88;;;20.96;37.15
55550;BME280;41397;49.972;18.944;2023-04-30T10:23:43;102210.91;;;20.98;34.91
55550;BME280;41397;49.972;18.944;2023-04-30T10:26:48;102204.95;;;21.11;36.33
55550;BME280;41397;49.972;18.944;2023-04-30T10:29:50;102212.36;;;21.20;35.13
55550;BME280;41397;49.972;18.944;2023-04-30T10:33:03;102203.61;;;20.97;33.97
55550;BME280;41397;49.972;18.944;2023-04-30T10:36:17;102199.39;;;21.11;34.20
55550;BME280;41397;49.972;18.944;2023-04-30T10:39:22;102204.16;;;21.18;34.46
55550;BME280;41397;49.972;18.944;2023-04-30T10:42:28;102201.77;;;21.23;35.10
55550;BME280;41397;49.972;18.944;2023-04-30T10:45:36;102200.80;;;21.33;34.62
55550;BME280;41397;49.972;18.944;2023-04-30T10:48:39;102190.53;;;21.33;35.33
55550;BME280;41397;49.972;18.944;2023-04-30T10:51:50;102193.24;;;21.25;34.95
55550;BME280;41397;49.972;18.944;2023-04-30T10:54:59;102191.09;;;21.37;34.93
55550;BME280;41397;49.972;18.944;2023-04-30T11:07:59;102189.04;;;21.39;33.06
55550;BME280;41397;49.972;18.944;2023-04-30T11:11:01;102184.58;;;21.46;33.27
55550;BME280;41397;49.972;18.944;2023-04-30T11:14:05;102186.23;;;21.57;33.55
55550;BME280;41397;49.972;18.944;2023-04-30T11:17:08;102188.67;;;21.60;33.55
55550;BME280;41397;49.972;18.944;2023-04-30T11:20:12;102192.11;;;21.54;33.89
55550;BME280;41397;49.972;18.944;2023-04-30T11:23:16;102194.91;;;21.54;33.82
55550;BME280;41397;49.972;18.944;2023-04-30T11:26:20;102195.32;;;21.41;33.77
55550;BME280;41397;49.972;18.944;2023-04-30T11:29:23;102198.34;;;21.47;33.57
55550;BME280;41397;49.972;18.944;2023-04-30T11:32:31;102192.93;;;21.46;33.22
55550;BME280;41397;49.972;18.944;2023-04-30T11:35:34;102192.38;;;21.42;33.78
55550;BME280;41397;49.972;18.944;2023-04-30T11:38:36;102199.93;;;21.50;33.13
55550;BME280;41397;49.972;18.944;2023-04-30T11:41:42;102182.66;;;21.46;32.33
55550;BME280;41397;49.972;18.944;2023-04-30T11:44:44;102190.92;;;21.56;32.60
55550;BME280;41397;49.972;18.944;2023-04-30T11:47:48;102196.00;;;21.61;32.79
55550;BME280;41397;49.972;18.944;2023-04-30T11:50:50;102189.21;;;21.63;30.81
55550;BME280;41397;49.972;18.944;2023-04-30T11:54:06;102196.59;;;21.72;31.76
55550;BME280;41397;49.972;18.944;2023-04-30T11:57:08;102197.30;;;21.75;31.90
55550;BME280;41397;49.972;18.944;2023-04-30T12:00:17;102191.59;;;21.84;32.02
55550;BME280;41397;49.972;18.944;2023-04-30T12:03:19;102189.44;;;21.70;30.98
55550;BME280;41397;49.972;18.944;2023-04-30T12:06:22;102185.23;;;21.66;32.21
55550;BME280;41397;49.972;18.944;2023-04-30T12:09:24;102197.26;;;21.66;33.00
55550;BME280;41397;49.972;18.944;2023-04-30T12:12:29;102192.37;;;21.68;32.92
55550;BME280;41397;49.972;18.944;2023-04-30T12:15:31;102190.05;;;21.56;32.18
55550;BME280;41397;49.972;18.944;2023-04-30T12:18:34;102191.30;;;21.61;33.17
55550;BME280;41397;49.972;18.944;2023-04-30T12:21:45;102190.10;;;21.64;33.43
55550;BME280;41397;49.972;18.944;2023-04-30T12:28:22;102187.54;;;21.44;30.95
55550;BME280;41397;49.972;18.944;2023-04-30T12:31:31;102192.20;;;21.44;30.43
55550;BME280;41397;49.972;18.944;2023-04-30T12:34:37;102183.32;;;21.40;30.28
55550;BME280;41397;49.972;18.944;2023-04-30T12:44:43;102172.19;;;21.40;30.77
55550;BME280;41397;49.972;18.944;2023-04-30T12:47:55;102173.77;;;21.43;30.27
55550;BME280;41397;49.972;18.944;2023-04-30T12:51:01;102170.46;;;21.39;29.95
55550;BME280;41397;49.972;18.944;2023-04-30T12:54:06;102167.15;;;21.44;30.43
55550;BME280;41397;49.972;18.944;2023-04-30T12:57:09;102160.18;;;21.22;28.77
55550;BME280;41397;49.972;18.944;2023-04-30T13:00:12;102161.50;;;21.10;29.04
55550;BME280;41397;49.972;18.944;2023-04-30T13:03:17;102155.28;;;21.16;30.18
55550;BME280;41397;49.972;18.944;2023-04-30T13:06:20;102157.66;;;21.11;29.68
55550;BME280;41397;49.972;18.944;2023-04-30T13:09:23;102160.63;;;21.09;29.42
55550;BME280;41397;49.972;18.944;2023-04-30T13:12:24;102156.95;;;21.09;29.11
55550;BME280;41397;49.972;18.944;2023-04-30T13:15:26;102145.75;;;21.00;28.49
55550;BME280;41397;49.972;18.944;2023-04-30T13:18:27;102148.24;;;20.86;27.54
55550;BME280;41397;49.972;18.944;2023-04-30T13:21:29;102152.94;;;20.85;28.81
55550;BME280;41397;49.972;18.944;2023-04-30T13:24:30;102151.57;;;20.89;28.87
55550;BME280;41397;49.972;18.944;2023-04-30T13:27:32;102143.63;;;20.94;29.33
55550;BME280;41397;49.972;18.944;2023-04-30T13:30:34;102145.15;;;20.89;29.36
55550;BME280;41397;49.972;18.944;2023-04-30T13:33:35;102146.11;;;20.79;29.72
55550;BME280;41397;49.972;18.944;2023-04-30T13:36:37;102150.16;;;20.85;30.27
55550;BME280;41397;49.972;18.944;2023-04-30T13:39:38;102146.44;;;20.76;29.47
55550;BME280;41397;49.972;18.944;2023-04-30T13:42:41;102145.33;;;20.87;30.10
55550;BME280;41397;49.972;18.944;2023-04-30T13:45:43;102146.20;;;20.88;28.85
55550;BME280;41397;49.972;18.944;2023-04-30T13:48:44;102150.16;;;20.85;29.72
55550;BME280;41397;49.972;18.944;2023-04-30T13:51:52;102138.00;;;20.86;29.65
55550;BME280;41397;49.972;18.944;2023-04-30T13:54:53;102150.63;;;20.80;29.69
55550;BME280;41397;49.972;18.944;2023-04-30T13:57:56;102144.60;;;20.85;30.82
55550;BME280;41397;49.972;18.944;2023-04-30T14:00:57;102138.79;;;20.78;30.21
55550;BME280;41397;49.972;18.944;2023-04-30T14:03:59;102144.38;;;20.60;30.74
55550;BME280;41397;49.972;18.944;2023-04-30T14:07:02;102144.20;;;20.62;31.41
55550;BME280;41397;49.972;18.944;2023-04-30T14:10:04;102145.23;;;20.61;30.42
55550;BME280;41397;49.972;18.944;2023-04-30T14:13:06;102151.20;;;20.66;30.75
55550;BME280;41397;49.972;18.944;2023-04-30T14:16:07;102140.41;;;20.63;30.28
55550;BME280;41397;49.972;18.944;2023-04-30T14:19:09;102143.79;;;20.57;29.52
55550;BME280;41397;49.972;18.944;2023-04-30T14:22:11;102146.16;;;20.52;29.89
55550;BME280;41397;49.972;18.944;2023-04-30T14:25:13;102151.58;;;20.53;30.85
55550;BME280;41397;49.972;18.944;2023-04-30T14:28:14;102141.62;;;20.51;30.56
55550;BME280;41397;49.972;18.944;2023-04-30T14:31:16;102143.39;;;20.52;30.40
55550;BME280;41397;49.972;18.944;2023-04-30T14:34:18;102141.06;;;20.47;30.10
55550;BME280;41397;49.972;18.944;2023-04-30T14:37:19;102144.12;;;20.54;31.20
55550;BME280;41397;49.972;18.944;2023-04-30T14:40:21;102152.91;;;20.49;30.64
55550;BME280;41397;49.972;18.944;2023-04-30T14:43:22;102151.05;;;20.40;30.45
55550;BME280;41397;49.972;18.944;2023-04-30T14:46:24;102139.38;;;20.36;30.62
55550;BME280;41397;49.972;18.944;2023-04-30T14:49:26;102144.08;;;20.36;30.47
55550;BME280;41397;49.972;18.944;2023-04-30T14:52:28;102144.40;;;20.33;30.40
55550;BME280;41397;49.972;18.944;2023-04-30T14:55:29;102150.09;;;20.31;30.78
55550;BME280;41397;49.972;18.944;2023-04-30T14:58:31;102139.44;;;20.27;30.47
55550;BME280;41397;49.972;18.944;2023-04-30T15:01:33;102143.80;;;20.29;31.13
55550;BME280;41397;49.972;18.944;2023-04-30T15:04:34;102139.86;;;20.32;31.88
55550;BME280;41397;49.972;18.944;2023-04-30T15:07:35;102140.89;;;20.31;30.55
55550;BME280;41397;49.972;18.944;2023-04-30T15:10:37;102141.76;;;20.31;30.47
55550;BME280;41397;49.972;18.944;2023-04-30T15:13:38;102145.73;;;20.29;31.47
55550;BME280;41397;49.972;18.944;2023-04-30T15:16:40;102146.59;;;20.29;31.88
55550;BME280;41397;49.972;18.944;2023-04-30T15:19:41;102141.76;;;20.31;32.06
55550;BME280;41397;49.972;18.944;2023-04-30T15:22:44;102138.98;;;20.31;31.70
55550;BME280;41397;49.972;18.944;2023-04-30T15:25:45;102141.76;;;20.31;31.32
55550;BME280;41397;49.972;18.944;2023-04-30T15:28:47;102140.39;;;20.17;30.58
55550;BME280;41397;49.972;18.944;2023-04-30T15:31:48;102149.59;;;20.18;30.50
55550;BME280;41397;49.972;18.944;2023-04-30T15:34:54;102148.72;;;20.17;31.14
55550;BME280;41397;49.972;18.944;2023-04-30T15:37:55;102139.35;;;20.18;31.22
55550;BME280;41397;49.972;18.944;2023-04-30T15:40:57;102149.27;;;20.21;31.37
55550;BME280;41397;49.972;18.944;2023-04-30T15:43:58;102141.47;;;20.07;31.21
55550;BME280;41397;49.972;18.944;2023-04-30T15:47:00;102147.03;;;20.07;31.00
55550;BME280;41397;49.972;18.944;2023-04-30T15:50:02;102143.52;;;20.05;31.14
55550;BME280;41397;49.972;18.944;2023-04-30T15:53:03;102147.87;;;19.89;30.59
55550;BME280;41397;49.972;18.944;2023-04-30T15:56:05;102155.01;;;19.92;30.82
55550;BME280;41397;49.972;18.944;2023-04-30T15:59:07;102143.32;;;19.88;31.31
55550;BME280;41397;49.972;18.944;2023-04-30T16:02:08;102139.66;;;19.88;31.08
55550;BME280;41397;49.972;18.944;2023-04-30T16:05:09;102140.71;;;19.87;31.44
55550;BME280;41397;49.972;18.944;2023-04-30T16:08:12;102142.20;;;19.81;31.57
55550;BME280;41397;49.972;18.944;2023-04-30T16:11:15;102145.11;;;19.80;31.51
55550;BME280;41397;49.972;18.944;2023-04-30T16:14:16;102147.95;;;19.70;31.55
55550;BME280;41397;49.972;18.944;2023-04-30T16:17:18;102146.19;;;19.69;31.59
55550;BME280;41397;49.972;18.944;2023-04-30T16:20:21;102144.27;;;19.69;31.75
55550;BME280;41397;49.972;18.944;2023-04-30T16:23:23;102140.36;;;19.62;32.48
55550;BME280;41397;49.972;18.944;2023-04-30T16:26:24;102128.66;;;19.59;32.47
55550;BME280;41397;49.972;18.944;2023-04-30T16:29:26;102136.28;;;19.57;32.47